Hyundai No.107 — A8CT4 — position and weather

sailwx.info

Track history (hours):
 
Tides and Currents Weather Stations Pressure Air Temp Water Temp Dewpoint Dewpoint Depression Visibility Wind Speed Wind Dir Waves Ship Positions

Hyundai No.107

Last reported at 2014-Aug-07 00:13 UTC. Time now 2014-Aug-30 10:28 UTC.
Position N 25°40' W 115°59'.
Warning: this ship's position is 23 days out of date.

Length 184 m; draft 8 m.

Type: Cargo ship. MMSI: 636011980.

Date/timePositionNaut miles runAvg speedWind from/ knotsBaromVisibWave heightAir tempDewpointWater temp
2014-Aug-07 00:13N 25°40' W 115°59'14915.5
2014-Aug-06 14:33N 27°14' W 118°08'7715.5
2014-Aug-06 09:33N 28°03' W 119°16'1515.4
2014-Aug-06 08:33N 28°13' W 119°30'1515.4
2014-Aug-06 07:33N 28°23' W 119°43'1515.4
2014-Aug-06 06:33N 28°33' W 119°56'1615.5
2014-Aug-06 05:33N 28°42' W 120°10'1515.4
2014-Aug-06 04:33N 28°52' W 120°24'1615.6
2014-Aug-06 03:33N 29°02' W 120°38'1615.6
2014-Aug-06 02:33N 29°12' W 120°52'1515.3
2014-Aug-06 01:33N 29°21' W 121°05'1615.3
2014-Aug-06 00:31N 29°32' W 121°20'1515.3
2014-Aug-05 23:32N 29°41' W 121°33'1515.3
2014-Aug-05 22:32N 29°51' W 121°46'1515.3
2014-Aug-05 21:33N 30°01' W 121°60'1515.2
2014-Aug-05 20:33N 30°09' W 122°14'1515.1
2014-Aug-05 19:33N 30°19' W 122°28'1515.0
2014-Aug-05 18:33N 30°28' W 122°41'15415.2
2014-Aug-05 08:25N 32°03' W 125°02'1315.1
2014-Aug-05 07:33N 32°11' W 125°15'1515.0
2014-Aug-05 06:33N 32°20' W 125°29'1515.1
2014-Aug-05 05:33N 32°29' W 125°43'1514.9
2014-Aug-05 04:33N 32°38' W 125°57'1514.9
2014-Aug-05 03:32N 32°47' W 126°12'1414.8
2014-Aug-05 02:33N 32°55' W 126°26'3214.8
2014-Aug-05 00:25N 33°14' W 126°56'14014.9
2014-Aug-04 15:05N 34°37' W 129°12'3915.0
2014-Aug-04 12:29N 34°60' W 129°50'1714.8
2014-Aug-04 11:22N 35°09' W 130°07'  
Track history (hours):
 
Tides and Currents Weather Stations Pressure Air Temp Water Temp Dewpoint Dewpoint Depression Visibility Wind Speed Wind Dir Waves Ship Positions

Hyundai No.107

Last reported at 2014-Aug-07 00:13 UTC. Time now 2014-Aug-30 10:28 UTC.
Position N 25°40' W 115°59'.
Warning: this ship's position is 23 days out of date.

Length 184 m; draft 8 m.

Type: Cargo ship. MMSI: 636011980.

Date/timePositionNaut miles runAvg speedWind from/ knotsBaromVisibWave heightAir tempDewpointWater temp
2014-Aug-07 00:13N 25°40' W 115°59'14915.5
2014-Aug-06 14:33N 27°14' W 118°08'7715.5
2014-Aug-06 09:33N 28°03' W 119°16'1515.4
2014-Aug-06 08:33N 28°13' W 119°30'1515.4
2014-Aug-06 07:33N 28°23' W 119°43'1515.4
2014-Aug-06 06:33N 28°33' W 119°56'1615.5
2014-Aug-06 05:33N 28°42' W 120°10'1515.4
2014-Aug-06 04:33N 28°52' W 120°24'1615.6
2014-Aug-06 03:33N 29°02' W 120°38'1615.6
2014-Aug-06 02:33N 29°12' W 120°52'1515.3
2014-Aug-06 01:33N 29°21' W 121°05'1615.3
2014-Aug-06 00:31N 29°32' W 121°20'1515.3
2014-Aug-05 23:32N 29°41' W 121°33'1515.3
2014-Aug-05 22:32N 29°51' W 121°46'1515.3
2014-Aug-05 21:33N 30°01' W 121°60'1515.2
2014-Aug-05 20:33N 30°09' W 122°14'1515.1
2014-Aug-05 19:33N 30°19' W 122°28'1515.0
2014-Aug-05 18:33N 30°28' W 122°41'15415.2
2014-Aug-05 08:25N 32°03' W 125°02'1315.1
2014-Aug-05 07:33N 32°11' W 125°15'1515.0
2014-Aug-05 06:33N 32°20' W 125°29'1515.1
2014-Aug-05 05:33N 32°29' W 125°43'1514.9
2014-Aug-05 04:33N 32°38' W 125°57'1514.9
2014-Aug-05 03:32N 32°47' W 126°12'1414.8
2014-Aug-05 02:33N 32°55' W 126°26'3214.8
2014-Aug-05 00:25N 33°14' W 126°56'14014.9
2014-Aug-04 15:05N 34°37' W 129°12'3915.0
2014-Aug-04 12:29N 34°60' W 129°50'1714.8
2014-Aug-04 11:22N 35°09' W 130°07'  

Dump ship's entire track history